Terminal Aerodrome Forecast
Issued by NWS

Home | Current Version | Previous Version | Text Only | Print | Product List | Glossary On
Versions: 1 2 3 4 5 6 7 8 9 10 11 12
120
FTUS43 KPAH 241721
TAFCGI
TAF
KCGI 241721Z 2418/2518 18013G23KT P6SM SCT025 BKN050
     FM250000 16011G19KT P6SM BKN050
     FM250500 16013G23KT P6SM VCTS BKN060CB
     FM250700 17012G22KT 5SM SHRA BR VCTS BKN030CB
     FM251200 16012G22KT 6SM -SHRA BR SCT020 BKN035=

USA.gov is the U.S. government's official web portal to all federal, state and local government web resources and services.